Time;durP1;ratioP1;P1;durP2;ratioP2;P2;SDS_P1;SDS_P2;PMS_P1;PMS_P2;Temp;Humidity;BMP_temperature;BMP_pressure;BME280_temperature;BME280_humidity;BME280_pressure;Samples;Min_cycle;Max_cycle;Signal;HPM_P1;HPM_P2
2022/06/05 00:02:38;;;;;;;;;;;;;;;;;;143744;982;46022;-57
2022/06/05 00:05:30;;;;;;;;;;;;;;;;;;143743;978;46013;-57
2022/06/05 00:08:18;;;;;;;;;;;;;;;;;;143739;981;46021;-57
2022/06/05 00:10:52;;;;;;;;;;;;;;;;;;143744;979;46012;-57
2022/06/05 00:13:32;;;;;;;;;;;;;;;;;;143738;981;46021;-57
2022/06/05 00:15:58;;;;;;;;;;;;;;;;;;143741;978;46020;-57
2022/06/05 00:18:25;;;;;;;;;;;;;;;;;;143741;975;46020;-57
2022/06/05 00:20:51;;;;;;;;;;;;;;;;;;143745;981;46012;-57
2022/06/05 00:23:17;;;;;;;;;;;;;;;;;;143742;979;47020;-57
2022/06/05 00:26:03;;;;;;;;;;;;;;;;;;143740;978;46020;-57
2022/06/05 00:28:42;;;;;;;;;;;;;;;;;;143742;973;46029;-58
2022/06/05 00:31:13;;;;;;;;;;;;;;;;;;143743;974;46020;-57
2022/06/05 00:33:43;;;;;;;;;;;;;;;;;;143746;956;46020;-57
2022/06/05 00:36:34;;;;;;;;;;;;;;;;;;143742;972;46021;-57
2022/06/05 00:39:26;;;;;;;;;;;;;;;;;;143735;982;46022;-57
2022/06/05 00:42:09;;;;;;;;;;;;;;;;;;143744;981;46014;-57
2022/06/05 00:44:46;;;;;;;;;;;;;;;;;;143744;980;46020;-57
2022/06/05 00:47:16;;;;;;;;;;;;;;;;;;143743;969;46020;-57
2022/06/05 00:49:46;;;;;;;;;;;;;;;;;;143742;975;46021;-57
2022/06/05 00:52:13;;;;;;;;;;;;;;;;;;143745;980;46021;-57
2022/06/05 00:54:39;;;;;;;;;;;;;;;;;;143744;982;46022;-58
2022/06/05 00:57:07;;;;;;;;;;;;;;;;;;143744;978;46012;-57
2022/06/05 00:59:33;;;;;;;;;;;;;;;;;;143743;979;46021;-57
2022/06/05 01:01:59;;;;;;;;;;;;;;;;;;143744;981;46012;-57
2022/06/05 01:04:26;;;;;;;;;;;;;;;;;;143739;955;46021;-57
2022/06/05 01:06:52;;;;;;;;;;;;;;;;;;143739;969;46021;-57
2022/06/05 01:09:19;;;;;;;;;;;;;;;;;;143743;982;46020;-58
2022/06/05 01:12:11;;;;;;;;;;;;;;;;;;143743;981;46013;-57
2022/06/05 01:14:50;;;;;;;;;;;;;;;;;;143765;981;45023;-57
2022/06/05 01:17:25;;;;;;;;;;;;;;;;;;143765;978;45020;-57
2022/06/05 01:20:19;;;;;;;;;;;;;;;;;;143767;979;45012;-57
2022/06/05 01:23:17;;;;;;;;;;;;;;;;;;143768;982;45020;-58
2022/06/05 01:26:09;;;;;;;;;;;;;;;;;;143767;982;45020;-57
2022/06/05 01:28:39;;;;;;;;;;;;;;;;;;143766;974;45021;-57
2022/06/05 01:31:11;;;;;;;;;;;;;;;;;;143763;982;45020;-57
2022/06/05 01:33:40;;;;;;;;;;;;;;;;;;143768;981;45012;-57
2022/06/05 01:36:15;;;;;;;;;;;;;;;;;;143767;953;45020;-57
2022/06/05 01:38:49;;;;;;;;;;;;;;;;;;143764;978;45012;-57
2022/06/05 01:41:20;;;;;;;;;;;;;;;;;;143766;981;45020;-57
2022/06/05 01:43:49;;;;;;;;;;;;;;;;;;143768;981;45021;-57
2022/06/05 01:46:33;;;;;;;;;;;;;;;;;;143765;980;45022;-57
2022/06/05 01:49:17;;;;;;;;;;;;;;;;;;143765;977;45020;-57
2022/06/05 01:52:03;;;;;;;;;;;;;;;;;;143765;978;45020;-57
2022/06/05 01:54:33;;;;;;;;;;;;;;;;;;143763;981;45020;-57
2022/06/05 01:57:00;;;;;;;;;;;;;;;;;;143767;967;45021;-57
2022/06/05 01:59:34;;;;;;;;;;;;;;;;;;143765;977;45012;-58
2022/06/05 02:02:02;;;;;;;;;;;;;;;;;;143764;971;45020;-57
2022/06/05 02:04:39;;;;;;;;;;;;;;;;;;143767;962;45020;-57
2022/06/05 02:07:17;;;;;;;;;;;;;;;;;;143768;980;45020;-57
2022/06/05 02:09:55;;;;;;;;;;;;;;;;;;143765;952;45020;-57
2022/06/05 02:12:22;;;;;;;;;;;;;;;;;;143763;980;46021;-57
2022/06/05 02:14:48;;;;;;;;;;;;;;;;;;143746;981;46020;-57
2022/06/05 02:17:15;;;;;;;;;;;;;;;;;;143740;977;46025;-57
2022/06/05 02:19:41;;;;;;;;;;;;;;;;;;143743;970;46021;-58
2022/06/05 02:22:11;;;;;;;;;;;;;;;;;;143738;973;46020;-57
2022/06/05 02:24:37;;;;;;;;;;;;;;;;;;143745;981;46012;-57
2022/06/05 02:27:05;;;;;;;;;;;;;;;;;;143744;981;46022;-57
2022/06/05 02:29:32;;;;;;;;;;;;;;;;;;143743;973;46020;-57
2022/06/05 02:32:12;;;;;;;;;;;;;;;;;;143745;962;46012;-58
2022/06/05 02:34:56;;;;;;;;;;;;;;;;;;143745;969;46013;-58
2022/06/05 02:37:46;;;;;;;;;;;;;;;;;;143739;974;47025;-57
2022/06/05 02:40:19;;;;;;;;;;;;;;;;;;143743;978;46020;-57
2022/06/05 02:42:55;;;;;;;;;;;;;;;;;;143747;981;46020;-57
2022/06/05 02:45:56;;;;;;;;;;;;;;;;;;143746;982;46012;-57
2022/06/05 02:48:34;;;;;;;;;;;;;;;;;;143737;976;46024;-58
2022/06/05 02:51:26;;;;;;;;;;;;;;;;;;143742;967;46020;-57
2022/06/05 02:53:54;;;;;;;;;;;;;;;;;;143740;982;46020;-57
2022/06/05 02:56:22;;;;;;;;;;;;;;;;;;143744;981;46013;-57
2022/06/05 02:58:49;;;;;;;;;;;;;;;;;;143743;980;46020;-58
2022/06/05 03:03:59;;;;;;;;;;;;;;;;;;143741;981;46013;-57
2022/06/05 03:06:28;;;;;;;;;;;;;;;;;;143744;976;46021;-58
2022/06/05 03:08:55;;;;;;;;;;;;;;;;;;143746;982;46020;-57
2022/06/05 03:11:21;;;;;;;;;;;;;;;;;;143741;978;46021;-57
2022/06/05 03:13:47;;;;;;;;;;;;;;;;;;143737;981;46020;-58
2022/06/05 03:16:14;;;;;;;;;;;;;;;;;;143746;982;46012;-57
2022/06/05 03:18:40;;;;;;;;;;;;;;;;;;143744;966;46036;-57
2022/06/05 03:21:07;;;;;;;;;;;;;;;;;;143742;975;46023;-58
2022/06/05 03:23:33;;;;;;;;;;;;;;;;;;143740;978;46018;-57
2022/06/05 03:25:59;;;;;;;;;;;;;;;;;;143745;979;46022;-57
2022/06/05 03:28:26;;;;;;;;;;;;;;;;;;143745;981;46018;-57
2022/06/05 03:30:52;;;;;;;;;;;;;;;;;;143742;976;46022;-57
2022/06/05 03:33:19;;;;;;;;;;;;;;;;;;143743;982;46019;-57
2022/06/05 03:35:46;;;;;;;;;;;;;;;;;;143745;979;46023;-58
2022/06/05 03:38:14;;;;;;;;;;;;;;;;;;143735;970;47020;-58
2022/06/05 03:40:41;;;;;;;;;;;;;;;;;;143743;976;46022;-58
2022/06/05 03:43:07;;;;;;;;;;;;;;;;;;143740;980;46018;-58
2022/06/05 03:45:33;;;;;;;;;;;;;;;;;;143745;980;46022;-58
2022/06/05 03:48:00;;;;;;;;;;;;;;;;;;143742;983;46020;-58
2022/06/05 03:50:26;;;;;;;;;;;;;;;;;;143742;975;46023;-58
2022/06/05 03:52:53;;;;;;;;;;;;;;;;;;143741;984;46018;-58
2022/06/05 03:55:20;;;;;;;;;;;;;;;;;;143746;979;46013;-58
2022/06/05 03:57:46;;;;;;;;;;;;;;;;;;143742;983;46021;-57
2022/06/05 04:00:14;;;;;;;;;;;;;;;;;;143742;972;46022;-57
2022/06/05 04:02:40;;;;;;;;;;;;;;;;;;143737;964;46038;-57
2022/06/05 04:05:07;;;;;;;;;;;;;;;;;;143746;981;46012;-57
2022/06/05 04:07:33;;;;;;;;;;;;;;;;;;143743;980;46020;-57
2022/06/05 04:10:00;;;;;;;;;;;;;;;;;;143741;978;46012;-57
2022/06/05 04:12:26;;;;;;;;;;;;;;;;;;143745;969;46013;-57
2022/06/05 04:14:53;;;;;;;;;;;;;;;;;;143744;982;46012;-57
2022/06/05 04:17:19;;;;;;;;;;;;;;;;;;143744;976;46020;-57
2022/06/05 04:19:46;;;;;;;;;;;;;;;;;;143743;977;46021;-57
2022/06/05 04:22:12;;;;;;;;;;;;;;;;;;143739;974;46020;-57
2022/06/05 04:24:38;;;;;;;;;;;;;;;;;;143746;975;46013;-58
2022/06/05 04:27:04;;;;;;;;;;;;;;;;;;143739;981;46021;-58
2022/06/05 04:29:32;;;;;;;;;;;;;;;;;;143741;978;46020;-58
2022/06/05 04:31:59;;;;;;;;;;;;;;;;;;143740;980;46022;-58
2022/06/05 04:34:25;;;;;;;;;;;;;;;;;;143742;979;46019;-59
2022/06/05 04:36:51;;;;;;;;;;;;;;;;;;143743;979;46022;-59
2022/06/05 04:39:18;;;;;;;;;;;;;;;;;;143743;978;46020;-58
2022/06/05 04:41:45;;;;;;;;;;;;;;;;;;143744;970;46021;-58
2022/06/05 04:44:13;;;;;;;;;;;;;;;;;;143743;982;46012;-58
2022/06/05 04:46:39;;;;;;;;;;;;;;;;;;143743;982;46022;-59
2022/06/05 04:49:08;;;;;;;;;;;;;;;;;;143742;965;46014;-59
2022/06/05 04:51:36;;;;;;;;;;;;;;;;;;143737;980;46020;-59
2022/06/05 04:54:03;;;;;;;;;;;;;;;;;;143746;970;46020;-59
2022/06/05 04:56:29;;;;;;;;;;;;;;;;;;143741;979;46022;-59
2022/06/05 04:58:56;;;;;;;;;;;;;;;;;;143742;977;46020;-59
2022/06/05 05:01:26;;;;;;;;;;;;;;;;;;143744;954;46020;-59
2022/06/05 05:03:54;;;;;;;;;;;;;;;;;;143744;981;46012;-59
2022/06/05 05:06:20;;;;;;;;;;;;;;;;;;143741;982;46022;-59
2022/06/05 05:08:47;;;;;;;;;;;;;;;;;;143743;973;46020;-59
2022/06/05 05:11:13;;;;;;;;;;;;;;;;;;143742;978;46021;-59
2022/06/05 05:13:39;;;;;;;;;;;;;;;;;;143745;977;46012;-59
2022/06/05 05:16:06;;;;;;;;;;;;;;;;;;143739;956;46020;-58
2022/06/05 05:18:32;;;;;;;;;;;;;;;;;;143743;978;46020;-58
2022/06/05 05:21:06;;;;;;;;;;;;;;;;;;143744;979;46020;-59
2022/06/05 05:23:32;;;;;;;;;;;;;;;;;;143746;976;46012;-59
2022/06/05 05:26:05;;;;;;;;;;;;;;;;;;143744;981;46021;-59
2022/06/05 05:28:32;;;;;;;;;;;;;;;;;;143744;977;46012;-60
2022/06/05 05:30:58;;;;;;;;;;;;;;;;;;143739;982;46020;-61
2022/06/05 05:33:24;;;;;;;;;;;;;;;;;;143745;964;46013;-60
2022/06/05 05:35:50;;;;;;;;;;;;;;;;;;143744;981;46020;-60
2022/06/05 05:38:17;;;;;;;;;;;;;;;;;;143742;978;46020;-60
2022/06/05 05:43:27;;;;;;;;;;;;;;;;;;143745;966;46020;-59
2022/06/05 05:45:53;;;;;;;;;;;;;;;;;;143742;961;46045;-59
2022/06/05 05:48:19;;;;;;;;;;;;;;;;;;143742;978;46020;-60
2022/06/05 05:50:46;;;;;;;;;;;;;;;;;;143741;982;46020;-59
2022/06/05 05:53:12;;;;;;;;;;;;;;;;;;143744;981;46012;-60
2022/06/05 05:55:38;;;;;;;;;;;;;;;;;;143741;980;46022;-59
2022/06/05 05:58:04;;;;;;;;;;;;;;;;;;143744;977;46012;-60
2022/06/05 06:00:30;;;;;;;;;;;;;;;;;;143743;982;46020;-60
2022/06/05 06:02:58;;;;;;;;;;;;;;;;;;143743;974;46020;-59
2022/06/05 06:05:24;;;;;;;;;;;;;;;;;;143738;974;46020;-59
2022/06/05 06:07:50;;;;;;;;;;;;;;;;;;143743;977;46020;-60
2022/06/05 06:10:17;;;;;;;;;;;;;;;;;;143740;981;46021;-59
2022/06/05 06:12:43;;;;;;;;;;;;;;;;;;143742;961;46041;-59
2022/06/05 06:15:10;;;;;;;;;;;;;;;;;;143743;981;46020;-59
2022/06/05 06:17:36;;;;;;;;;;;;;;;;;;143739;976;46022;-60
2022/06/05 06:20:03;;;;;;;;;;;;;;;;;;143744;983;46018;-59
2022/06/05 06:22:29;;;;;;;;;;;;;;;;;;143744;980;46012;-60
2022/06/05 06:24:55;;;;;;;;;;;;;;;;;;143740;981;46020;-59
2022/06/05 06:27:21;;;;;;;;;;;;;;;;;;143742;969;46023;-59
2022/06/05 06:29:48;;;;;;;;;;;;;;;;;;143737;982;46018;-59
2022/06/05 06:32:14;;;;;;;;;;;;;;;;;;143744;974;46022;-60
2022/06/05 06:34:40;;;;;;;;;;;;;;;;;;143741;964;46042;-59
2022/06/05 06:37:07;;;;;;;;;;;;;;;;;;143742;976;47012;-60
2022/06/05 06:39:33;;;;;;;;;;;;;;;;;;143742;984;46019;-60
2022/06/05 06:41:59;;;;;;;;;;;;;;;;;;143745;979;46023;-59
2022/06/05 06:44:26;;;;;;;;;;;;;;;;;;143742;981;46020;-60
2022/06/05 06:46:52;;;;;;;;;;;;;;;;;;143742;976;46022;-59
2022/06/05 06:49:19;;;;;;;;;;;;;;;;;;143743;983;46018;-59
2022/06/05 06:51:45;;;;;;;;;;;;;;;;;;143743;979;46012;-60
2022/06/05 06:54:12;;;;;;;;;;;;;;;;;;143736;962;46020;-59
2022/06/05 06:56:38;;;;;;;;;;;;;;;;;;143744;975;46012;-60
2022/06/05 06:59:04;;;;;;;;;;;;;;;;;;143744;983;46018;-60
2022/06/05 07:01:31;;;;;;;;;;;;;;;;;;143745;972;46022;-60
2022/06/05 07:03:57;;;;;;;;;;;;;;;;;;143742;959;46047;-59
2022/06/05 07:06:23;;;;;;;;;;;;;;;;;;143741;976;46022;-59
2022/06/05 07:08:50;;;;;;;;;;;;;;;;;;143742;975;46018;-58
2022/06/05 07:11:17;;;;;;;;;;;;;;;;;;143744;976;46023;-59
2022/06/05 07:13:43;;;;;;;;;;;;;;;;;;143742;982;46020;-58
2022/06/05 07:16:10;;;;;;;;;;;;;;;;;;143742;976;46022;-59
2022/06/05 07:18:37;;;;;;;;;;;;;;;;;;143738;983;46018;-60
2022/06/05 07:21:10;;;;;;;;;;;;;;;;;;143745;980;46022;-59
2022/06/05 07:23:36;;;;;;;;;;;;;;;;;;143744;982;46019;-60
2022/06/05 07:26:03;;;;;;;;;;;;;;;;;;143741;973;46013;-58
2022/06/05 07:28:29;;;;;;;;;;;;;;;;;;143743;983;46018;-60
2022/06/05 07:30:56;;;;;;;;;;;;;;;;;;143745;979;46013;-60
2022/06/05 07:33:23;;;;;;;;;;;;;;;;;;143745;981;46021;-59
2022/06/05 07:35:55;;;;;;;;;;;;;;;;;;143742;976;46012;-59
2022/06/05 07:38:21;;;;;;;;;;;;;;;;;;143742;981;46019;-60
2022/06/05 07:40:47;;;;;;;;;;;;;;;;;;143744;979;46012;-60
2022/06/05 07:43:13;;;;;;;;;;;;;;;;;;143737;981;46020;-60
2022/06/05 07:45:43;;;;;;;;;;;;;;;;;;143741;972;46030;-59
2022/06/05 07:48:10;;;;;;;;;;;;;;;;;;143744;983;46018;-59
2022/06/05 07:54:26;;;;;;;;;;;;;;;;;;143743;967;46022;-59
2022/06/05 07:56:05;;;;;;;;;;;;;;;;;;143744;977;46022;-59
2022/06/05 07:58:31;;;;;;;;;;;;;;;;;;143744;958;46018;-60
2022/06/05 08:00:58;;;;;;;;;;;;;;;;;;143744;980;46022;-60
2022/06/05 08:03:24;;;;;;;;;;;;;;;;;;143743;981;46021;-60
2022/06/05 08:05:50;;;;;;;;;;;;;;;;;;143741;976;46022;-60
2022/06/05 08:08:16;;;;;;;;;;;;;;;;;;143738;984;46018;-60
2022/06/05 08:10:43;;;;;;;;;;;;;;;;;;143743;973;46029;-60
2022/06/05 08:13:09;;;;;;;;;;;;;;;;;;143743;982;46020;-60
2022/06/05 08:15:35;;;;;;;;;;;;;;;;;;143742;976;46022;-60
2022/06/05 08:18:02;;;;;;;;;;;;;;;;;;143741;972;46018;-60
2022/06/05 08:20:28;;;;;;;;;;;;;;;;;;143746;977;46022;-60
2022/06/05 08:22:55;;;;;;;;;;;;;;;;;;143745;970;46018;-60
2022/06/05 08:25:21;;;;;;;;;;;;;;;;;;143741;976;46023;-60
2022/06/05 08:27:48;;;;;;;;;;;;;;;;;;143741;981;46018;-60
2022/06/05 08:30:14;;;;;;;;;;;;;;;;;;143743;980;46012;-60
2022/06/05 08:32:41;;;;;;;;;;;;;;;;;;143737;975;46021;-60
2022/06/05 08:35:07;;;;;;;;;;;;;;;;;;143742;976;46022;-60
2022/06/05 08:43:40;;;;;;;;;;;;;;;;;;143742;981;46020;-60
2022/06/05 08:46:11;;;;;;;;;;;;;;;;;;143742;976;46022;-60
2022/06/05 08:48:40;;;;;;;;;;;;;;;;;;143742;979;46018;-60
2022/06/05 08:51:40;;;;;;;;;;;;;;;;;;143743;980;46012;-60
2022/06/05 08:54:35;;;;;;;;;;;;;;;;;;143745;958;46019;-60
2022/06/05 08:57:11;;;;;;;;;;;;;;;;;;143743;975;46012;-60
2022/06/05 09:00:06;;;;;;;;;;;;;;;;;;143738;984;46018;-60
2022/06/05 09:03:01;;;;;;;;;;;;;;;;;;143743;979;46013;-60
2022/06/05 09:05:29;;;;;;;;;;;;;;;;;;143742;981;46018;-60
2022/06/05 09:07:57;;;;;;;;;;;;;;;;;;143742;970;46022;-60
2022/06/05 09:10:55;;;;;;;;;;;;;;;;;;143739;982;46019;-61
2022/06/05 09:13:44;;;;;;;;;;;;;;;;;;143743;976;46012;-60
2022/06/05 09:16:13;;;;;;;;;;;;;;;;;;143743;961;46019;-60
2022/06/05 09:18:43;;;;;;;;;;;;;;;;;;143743;975;46023;-61
2022/06/05 09:21:17;;;;;;;;;;;;;;;;;;143740;984;46018;-60
2022/06/05 09:24:00;;;;;;;;;;;;;;;;;;143744;979;46012;-60
2022/06/05 09:26:40;;;;;;;;;;;;;;;;;;143737;979;46021;-60
2022/06/05 09:29:37;;;;;;;;;;;;;;;;;;143742;974;46022;-59
2022/06/05 09:32:16;;;;;;;;;;;;;;;;;;143741;962;46019;-60
2022/06/05 09:34:53;;;;;;;;;;;;;;;;;;143744;979;46012;-60
2022/06/05 09:37:38;;;;;;;;;;;;;;;;;;143740;980;46020;-60
2022/06/05 09:40:27;;;;;;;;;;;;;;;;;;143743;976;46013;-61
2022/06/05 09:43:15;;;;;;;;;;;;;;;;;;143742;984;46018;-61
2022/06/05 09:45:52;;;;;;;;;;;;;;;;;;143743;977;46013;-60
2022/06/05 09:48:38;;;;;;;;;;;;;;;;;;143742;981;46021;-60
2022/06/05 09:51:09;;;;;;;;;;;;;;;;;;143743;976;46012;-60
2022/06/05 09:53:51;;;;;;;;;;;;;;;;;;143736;980;46019;-61
2022/06/05 09:58:24;;;;;;;;;;;;;;;;;;143744;972;46023;-60
2022/06/05 09:59:25;;;;;;;;;;;;;;;;;;143743;971;46018;-60
2022/06/05 10:01:54;;;;;;;;;;;;;;;;;;143741;976;46023;-59
2022/06/05 10:04:21;;;;;;;;;;;;;;;;;;143744;982;46018;-59
2022/06/05 10:06:52;;;;;;;;;;;;;;;;;;143745;980;46022;-60
2022/06/05 10:09:23;;;;;;;;;;;;;;;;;;143741;959;47013;-61
2022/06/05 10:11:51;;;;;;;;;;;;;;;;;;143742;975;46022;-60
2022/06/05 10:14:43;;;;;;;;;;;;;;;;;;143742;982;46018;-60
2022/06/05 10:17:41;;;;;;;;;;;;;;;;;;143745;978;46013;-60
2022/06/05 10:20:24;;;;;;;;;;;;;;;;;;143737;977;46018;-60
2022/06/05 10:23:25;;;;;;;;;;;;;;;;;;143744;975;46013;-60
2022/06/05 10:26:17;;;;;;;;;;;;;;;;;;143744;956;46018;-60
2022/06/05 10:28:44;;;;;;;;;;;;;;;;;;143744;968;46034;-60
2022/06/05 10:31:22;;;;;;;;;;;;;;;;;;143743;982;46019;-60
2022/06/05 10:34:03;;;;;;;;;;;;;;;;;;143742;975;46010;-60
2022/06/05 10:36:52;;;;;;;;;;;;;;;;;;143742;982;46018;-60
2022/06/05 10:39:32;;;;;;;;;;;;;;;;;;143742;977;46023;-60
2022/06/05 10:42:15;;;;;;;;;;;;;;;;;;143745;981;46018;-60
2022/06/05 10:44:51;;;;;;;;;;;;;;;;;;143739;974;46023;-60
2022/06/05 10:47:27;;;;;;;;;;;;;;;;;;143735;981;46019;-60
2022/06/05 10:50:05;;;;;;;;;;;;;;;;;;143744;973;46022;-60
2022/06/05 10:52:47;;;;;;;;;;;;;;;;;;143737;982;47020;-60
2022/06/05 10:55:31;;;;;;;;;;;;;;;;;;143743;975;46026;-60
2022/06/05 10:58:06;;;;;;;;;;;;;;;;;;143740;956;46046;-60
2022/06/05 11:00:43;;;;;;;;;;;;;;;;;;143745;974;46022;-60
2022/06/05 11:03:16;;;;;;;;;;;;;;;;;;143744;969;46018;-60
2022/06/05 11:06:14;;;;;;;;;;;;;;;;;;143742;976;46010;-60
2022/06/05 11:08:57;;;;;;;;;;;;;;;;;;143742;973;46019;-60
2022/06/05 11:14:20;;;;;;;;;;;;;;;;;;143755;976;46020;-60
2022/06/05 11:17:17;;;;;;;;;;;;;;;;;;143764;976;45931;-60
2022/06/05 11:20:01;;;;;;;;;;;;;;;;;;143766;980;45018;-59
2022/06/05 11:22:29;;;;;;;;;;;;;;;;;;143767;972;45010;-59
2022/06/05 11:25:09;;;;;;;;;;;;;;;;;;143767;977;45018;-59
2022/06/05 11:27:51;;;;;;;;;;;;;;;;;;143764;976;45022;-59
2022/06/05 11:30:21;;;;;;;;;;;;;;;;;;143767;969;45019;-59
2022/06/05 11:33:02;;;;;;;;;;;;;;;;;;143767;979;45023;-60
2022/06/05 11:35:34;;;;;;;;;;;;;;;;;;143767;982;45018;-59
2022/06/05 11:38:22;;;;;;;;;;;;;;;;;;143765;976;45022;-59
2022/06/05 11:41:00;;;;;;;;;;;;;;;;;;143765;977;45018;-59
2022/06/05 11:43:37;;;;;;;;;;;;;;;;;;143767;980;45022;-60
2022/06/05 11:46:18;;;;;;;;;;;;;;;;;;143767;982;45019;-59
2022/06/05 11:48:48;;;;;;;;;;;;;;;;;;143765;975;45933;-59
2022/06/05 11:51:37;;;;;;;;;;;;;;;;;;143763;984;45018;-59
2022/06/05 11:54:32;;;;;;;;;;;;;;;;;;143767;979;45023;-59
2022/06/05 11:57:05;;;;;;;;;;;;;;;;;;143768;979;45018;-59
2022/06/05 11:59:35;;;;;;;;;;;;;;;;;;143765;976;45022;-59
2022/06/05 12:02:33;;;;;;;;;;;;;;;;;;143765;983;45018;-60
2022/06/05 12:05:13;;;;;;;;;;;;;;;;;;143766;980;45010;-59
2022/06/05 12:07:40;;;;;;;;;;;;;;;;;;143766;979;45020;-59
2022/06/05 12:10:08;;;;;;;;;;;;;;;;;;143764;972;45931;-59
2022/06/05 12:12:37;;;;;;;;;;;;;;;;;;143760;980;46018;-59
2022/06/05 12:15:25;;;;;;;;;;;;;;;;;;143743;979;46022;-59
2022/06/05 12:18:02;;;;;;;;;;;;;;;;;;143743;968;46021;-59
2022/06/05 12:20:42;;;;;;;;;;;;;;;;;;143741;976;46022;-60
2022/06/05 12:23:31;;;;;;;;;;;;;;;;;;143742;983;46019;-60
2022/06/05 12:26:02;;;;;;;;;;;;;;;;;;143746;975;46010;-59
2022/06/05 12:28:42;;;;;;;;;;;;;;;;;;143742;981;46020;-59
2022/06/05 12:31:35;;;;;;;;;;;;;;;;;;143741;976;46023;-59
2022/06/05 12:34:22;;;;;;;;;;;;;;;;;;143737;961;46018;-60
2022/06/05 12:37:14;;;;;;;;;;;;;;;;;;143745;975;46022;-60
2022/06/05 12:39:48;;;;;;;;;;;;;;;;;;143745;981;46018;-59
2022/06/05 12:42:27;;;;;;;;;;;;;;;;;;143742;976;46022;-59
2022/06/05 12:44:56;;;;;;;;;;;;;;;;;;143739;983;46019;-59
2022/06/05 12:47:42;;;;;;;;;;;;;;;;;;143745;979;46010;-60
2022/06/05 12:50:26;;;;;;;;;;;;;;;;;;143742;982;46022;-59
2022/06/05 12:52:57;;;;;;;;;;;;;;;;;;143741;976;46011;-59
2022/06/05 12:55:30;;;;;;;;;;;;;;;;;;143744;984;46018;-59
2022/06/05 12:58:16;;;;;;;;;;;;;;;;;;143745;980;46010;-60
2022/06/05 13:01:11;;;;;;;;;;;;;;;;;;143740;981;46019;-59
2022/06/05 13:03:55;;;;;;;;;;;;;;;;;;143742;976;46010;-59
2022/06/05 13:06:42;;;;;;;;;;;;;;;;;;143743;983;46019;-59
2022/06/05 13:09:27;;;;;;;;;;;;;;;;;;143745;979;46010;-60
2022/06/05 13:12:02;;;;;;;;;;;;;;;;;;143745;982;46018;-59
2022/06/05 13:14:50;;;;;;;;;;;;;;;;;;143743;976;46022;-59
2022/06/05 13:17:33;;;;;;;;;;;;;;;;;;143737;984;46018;-59
2022/06/05 13:20:02;;;;;;;;;;;;;;;;;;143739;980;46010;-59
2022/06/05 13:22:51;;;;;;;;;;;;;;;;;;143737;975;46020;-59
2022/06/05 13:25:51;;;;;;;;;;;;;;;;;;143736;975;46010;-59
2022/06/05 13:28:40;;;;;;;;;;;;;;;;;;143733;982;46020;-59
2022/06/05 13:31:23;;;;;;;;;;;;;;;;;;143737;979;46010;-60
2022/06/05 13:33:55;;;;;;;;;;;;;;;;;;143736;969;46018;-59
2022/06/05 13:36:30;;;;;;;;;;;;;;;;;;143736;975;46023;-59
2022/06/05 13:39:04;;;;;;;;;;;;;;;;;;143736;979;46018;-59
2022/06/05 13:41:38;;;;;;;;;;;;;;;;;;143738;978;46010;-59
2022/06/05 13:44:21;;;;;;;;;;;;;;;;;;143738;969;46019;-59
2022/06/05 13:46:56;;;;;;;;;;;;;;;;;;143735;975;46010;-59
2022/06/05 13:49:35;;;;;;;;;;;;;;;;;;143734;961;46018;-59
2022/06/05 13:52:14;;;;;;;;;;;;;;;;;;143738;978;46010;-59
2022/06/05 13:54:45;;;;;;;;;;;;;;;;;;143738;970;46018;-59
2022/06/05 13:57:34;;;;;;;;;;;;;;;;;;143736;976;46022;-59
2022/06/05 14:00:04;;;;;;;;;;;;;;;;;;143736;982;46019;-59
2022/06/05 14:02:33;;;;;;;;;;;;;;;;;;143738;980;46010;-59
2022/06/05 14:05:01;;;;;;;;;;;;;;;;;;143738;982;46018;-59
2022/06/05 14:07:29;;;;;;;;;;;;;;;;;;143735;976;46023;-59
2022/06/05 14:10:07;;;;;;;;;;;;;;;;;;143737;956;46018;-59
2022/06/05 14:12:42;;;;;;;;;;;;;;;;;;143740;966;46036;-60
2022/06/05 14:15:16;;;;;;;;;;;;;;;;;;143736;979;46021;-59
2022/06/05 14:17:45;;;;;;;;;;;;;;;;;;143736;976;46022;-59
2022/06/05 14:20:17;;;;;;;;;;;;;;;;;;143736;983;46019;-60
2022/06/05 14:22:48;;;;;;;;;;;;;;;;;;143737;979;46023;-59
2022/06/05 14:25:19;;;;;;;;;;;;;;;;;;143739;982;46018;-59
2022/06/05 14:27:45;;;;;;;;;;;;;;;;;;143736;976;46022;-59
2022/06/05 14:30:22;;;;;;;;;;;;;;;;;;143738;969;46018;-59
2022/06/05 14:32:49;;;;;;;;;;;;;;;;;;143740;971;46012;-59
2022/06/05 14:35:20;;;;;;;;;;;;;;;;;;143735;976;47018;-59
2022/06/05 14:37:57;;;;;;;;;;;;;;;;;;143736;966;46023;-59
2022/06/05 14:40:27;;;;;;;;;;;;;;;;;;143735;975;46018;-60
2022/06/05 14:42:58;;;;;;;;;;;;;;;;;;143739;961;46022;-59
2022/06/05 14:45:44;;;;;;;;;;;;;;;;;;143739;981;46018;-59
2022/06/05 14:48:28;;;;;;;;;;;;;;;;;;143736;976;46012;-59
2022/06/05 14:51:14;;;;;;;;;;;;;;;;;;143734;978;46019;-59
2022/06/05 14:53:47;;;;;;;;;;;;;;;;;;143740;970;46022;-59
2022/06/05 14:59:31;;;;;;;;;;;;;;;;;;143736;968;46023;-59
2022/06/05 15:02:22;;;;;;;;;;;;;;;;;;143738;971;46018;-59
2022/06/05 15:05:14;;;;;;;;;;;;;;;;;;143737;980;46013;-59
2022/06/05 15:08:00;;;;;;;;;;;;;;;;;;143735;981;46023;-59
2022/06/05 15:10:36;;;;;;;;;;;;;;;;;;143736;976;46012;-58
2022/06/05 15:13:07;;;;;;;;;;;;;;;;;;143735;981;46021;-58
2022/06/05 15:15:44;;;;;;;;;;;;;;;;;;143740;981;46012;-59
2022/06/05 15:18:11;;;;;;;;;;;;;;;;;;143735;982;46020;-59
2022/06/05 15:20:55;;;;;;;;;;;;;;;;;;143735;976;47012;-59
2022/06/05 15:23:39;;;;;;;;;;;;;;;;;;143734;982;46019;-59
2022/06/05 15:26:17;;;;;;;;;;;;;;;;;;143738;974;46013;-59
2022/06/05 15:29:01;;;;;;;;;;;;;;;;;;143736;959;46043;-59
2022/06/05 15:31:31;;;;;;;;;;;;;;;;;;143737;973;46012;-59
2022/06/05 15:34:03;;;;;;;;;;;;;;;;;;143735;976;46018;-59
2022/06/05 15:36:49;;;;;;;;;;;;;;;;;;143739;979;46022;-59
2022/06/05 15:39:50;;;;;;;;;;;;;;;;;;143736;977;46022;-59
2022/06/05 15:42:42;;;;;;;;;;;;;;;;;;143736;976;46012;-58
2022/06/05 15:45:37;;;;;;;;;;;;;;;;;;143735;981;46018;-58
2022/06/05 15:48:26;;;;;;;;;;;;;;;;;;143738;980;46012;-59
2022/06/05 15:51:07;;;;;;;;;;;;;;;;;;143736;978;46019;-58
2022/06/05 15:53:45;;;;;;;;;;;;;;;;;;143732;975;48010;-58
2022/06/05 15:56:29;;;;;;;;;;;;;;;;;;143738;983;46018;-58
2022/06/05 15:59:13;;;;;;;;;;;;;;;;;;143738;979;46013;-58
2022/06/05 16:01:43;;;;;;;;;;;;;;;;;;143735;982;47022;-58
2022/06/05 16:04:17;;;;;;;;;;;;;;;;;;143736;970;46022;-58
2022/06/05 16:06:56;;;;;;;;;;;;;;;;;;143737;967;46035;-58
2022/06/05 16:09:35;;;;;;;;;;;;;;;;;;143739;980;46010;-58
2022/06/05 16:12:11;;;;;;;;;;;;;;;;;;143736;960;46046;-59
2022/06/05 16:14:57;;;;;;;;;;;;;;;;;;143765;972;45929;-58
2022/06/05 16:18:01;;;;;;;;;;;;;;;;;;143762;963;45020;-58
2022/06/05 16:20:39;;;;;;;;;;;;;;;;;;143767;979;45024;-58
2022/06/05 16:23:27;;;;;;;;;;;;;;;;;;143763;981;46018;-58
2022/06/05 16:26:13;;;;;;;;;;;;;;;;;;143765;976;45022;-59
2022/06/05 16:28:44;;;;;;;;;;;;;;;;;;143765;983;45018;-58
2022/06/05 16:31:26;;;;;;;;;;;;;;;;;;143766;979;45023;-59
2022/06/05 16:33:57;;;;;;;;;;;;;;;;;;143764;982;45020;-58
2022/06/05 16:39:27;;;;;;;;;;;;;;;;;;143767;962;45017;-58
2022/06/05 16:42:04;;;;;;;;;;;;;;;;;;143758;980;47010;-59
2022/06/05 16:44:35;;;;;;;;;;;;;;;;;;143765;980;45019;-58
2022/06/05 16:47:02;;;;;;;;;;;;;;;;;;143765;976;45929;-59
2022/06/05 16:49:47;;;;;;;;;;;;;;;;;;143767;983;45019;-58
2022/06/05 16:52:18;;;;;;;;;;;;;;;;;;143767;979;45010;-58
2022/06/05 16:54:57;;;;;;;;;;;;;;;;;;143766;982;45018;-58
2022/06/05 16:57:23;;;;;;;;;;;;;;;;;;143765;976;45022;-58
2022/06/05 17:00:15;;;;;;;;;;;;;;;;;;143762;969;45924;-58
2022/06/05 17:02:46;;;;;;;;;;;;;;;;;;143763;980;45022;-58
2022/06/05 17:05:21;;;;;;;;;;;;;;;;;;143766;982;45019;-59
2022/06/05 17:07:56;;;;;;;;;;;;;;;;;;143764;975;45023;-58
2022/06/05 17:10:43;;;;;;;;;;;;;;;;;;143764;984;45018;-58
2022/06/05 17:13:35;;;;;;;;;;;;;;;;;;143753;979;46010;-58
2022/06/05 17:16:01;;;;;;;;;;;;;;;;;;143735;969;47018;-58
2022/06/05 17:18:39;;;;;;;;;;;;;;;;;;143736;975;46022;-59
2022/06/05 17:21:25;;;;;;;;;;;;;;;;;;143736;983;46019;-59
2022/06/05 17:24:09;;;;;;;;;;;;;;;;;;143741;980;46010;-59
2022/06/05 17:27:10;;;;;;;;;;;;;;;;;;143734;964;46020;-59
2022/06/05 17:29:58;;;;;;;;;;;;;;;;;;143738;975;46023;-58
2022/06/05 17:32:44;;;;;;;;;;;;;;;;;;143736;969;46018;-58
2022/06/05 17:35:26;;;;;;;;;;;;;;;;;;143738;979;46011;-59
2022/06/05 17:38:10;;;;;;;;;;;;;;;;;;143737;970;46020;-58
2022/06/05 17:40:44;;;;;;;;;;;;;;;;;;143736;976;46022;-59
2022/06/05 17:43:19;;;;;;;;;;;;;;;;;;143739;983;46018;-58
2022/06/05 17:46:05;;;;;;;;;;;;;;;;;;143740;979;46010;-58
2022/06/05 17:48:47;;;;;;;;;;;;;;;;;;143739;979;46014;-58
2022/06/05 17:51:34;;;;;;;;;;;;;;;;;;143738;976;46011;-58
2022/06/05 17:54:00;;;;;;;;;;;;;;;;;;143735;982;46018;-58
2022/06/05 17:56:35;;;;;;;;;;;;;;;;;;143739;980;46010;-58
2022/06/05 17:59:01;;;;;;;;;;;;;;;;;;143737;981;46021;-59
2022/06/05 18:01:30;;;;;;;;;;;;;;;;;;143738;976;46022;-58